Time;durP1;ratioP1;P1;durP2;ratioP2;P2;SDS_P1;SDS_P2;PMS_P1;PMS_P2;Temp;Humidity;BMP_temperature;BMP_pressure;BME280_temperature;BME280_humidity;BME280_pressure;Samples;Min_cycle;Max_cycle;Signal;HPM_P1;HPM_P2
2023/08/11 00:02:20;;;;;;;10.45;6.00;;;18.70;72.30;;;;;;5023577;28;20054;-77
2023/08/11 00:04:49;;;;;;;8.73;6.10;;;18.70;72.30;;;;;;5020923;28;20125;-78
2023/08/11 00:07:16;;;;;;;9.13;5.80;;;18.60;72.30;;;;;;5011172;28;20428;-77
2023/08/11 00:09:44;;;;;;;9.07;5.97;;;18.60;72.40;;;;;;5027722;28;20257;-77
2023/08/11 00:12:11;;;;;;;8.77;5.97;;;18.60;72.30;;;;;;5028787;28;20144;-77
2023/08/11 00:14:38;;;;;;;8.68;5.90;;;18.60;72.30;;;;;;5027362;28;20133;-77
2023/08/11 00:17:08;;;;;;;8.50;6.00;;;18.50;72.20;;;;;;5027659;28;20046;-78
2023/08/11 00:19:37;;;;;;;8.70;5.83;;;18.50;72.20;;;;;;5028992;28;20674;-77
2023/08/11 00:22:05;;;;;;;9.60;5.80;;;18.40;72.20;;;;;;5025698;28;20270;-77
2023/08/11 00:24:33;;;;;;;8.82;5.57;;;18.40;72.10;;;;;;5028715;28;20054;-77
2023/08/11 00:27:03;;;;;;;10.60;5.30;;;18.40;72.10;;;;;;5027333;28;20046;-77
2023/08/11 00:29:31;;;;;;;9.60;5.72;;;18.30;72.10;;;;;;5029409;28;20558;-78
2023/08/11 00:32:01;;;;;;;9.13;6.80;;;18.30;72.00;;;;;;5026933;28;20057;-77
2023/08/11 00:34:28;;;;;;;10.82;6.55;;;18.30;72.00;;;;;;5010545;28;20301;-77
2023/08/11 00:36:59;;;;;;;9.40;6.60;;;18.30;72.00;;;;;;5026894;28;20054;-77
2023/08/11 00:39:26;;;;;;;10.07;6.45;;;18.20;72.00;;;;;;5027377;28;20062;-77
2023/08/11 00:41:55;;;;;;;8.80;6.53;;;18.20;72.00;;;;;;5008612;28;20052;-77
2023/08/11 00:44:22;;;;;;;10.73;6.23;;;18.10;72.10;;;;;;5009713;28;20058;-77
2023/08/11 00:46:49;;;;;;;10.23;6.68;;;18.10;72.00;;;;;;5027074;28;20379;-77
2023/08/11 00:49:16;;;;;;;11.15;6.82;;;18.10;72.00;;;;;;5010627;28;20140;-77
2023/08/11 00:51:43;;;;;;;9.77;6.40;;;18.10;72.10;;;;;;5026952;28;20574;-77
2023/08/11 00:54:13;;;;;;;11.43;6.70;;;18.00;72.10;;;;;;5010229;28;21004;-77
2023/08/11 00:56:44;;;;;;;9.30;6.80;;;18.00;72.10;;;;;;5010199;28;20508;-78
2023/08/11 00:59:13;;;;;;;9.88;6.20;;;18.00;72.10;;;;;;5027280;28;20344;-77
2023/08/11 01:01:40;;;;;;;12.73;6.70;;;17.90;72.10;;;;;;5031535;28;20046;-77
2023/08/11 01:04:08;;;;;;;9.05;6.65;;;17.80;72.00;;;;;;5027524;28;20104;-77
2023/08/11 01:06:43;;;;;;;11.48;7.25;;;17.80;72.00;;;;;;5029932;28;20054;-77
2023/08/11 01:09:23;;;;;;;11.13;7.50;;;17.80;72.00;;;;;;5013625;28;20427;-77
2023/08/11 01:12:01;;;;;;;10.63;7.00;;;17.80;72.10;;;;;;5031620;28;20293;-77
2023/08/11 01:14:48;;;;;;;11.18;7.95;;;17.80;72.20;;;;;;5013622;28;20132;-77
2023/08/11 01:17:18;;;;;;;11.68;8.13;;;17.60;72.30;;;;;;5029567;28;20046;-77
2023/08/11 01:19:47;;;;;;;12.13;8.55;;;17.60;72.50;;;;;;5031391;28;20141;-77
2023/08/11 01:22:18;;;;;;;11.47;8.63;;;17.60;72.50;;;;;;5013784;28;20081;-77
2023/08/11 01:24:46;;;;;;;12.20;8.45;;;17.50;72.60;;;;;;5012550;28;20254;-77
2023/08/11 01:27:14;;;;;;;11.95;8.82;;;17.50;72.60;;;;;;5013030;28;20108;-77
2023/08/11 01:29:41;;;;;;;11.18;7.45;;;17.50;72.60;;;;;;5012567;28;20137;-77
2023/08/11 01:32:09;;;;;;;10.63;7.82;;;17.50;72.60;;;;;;5031202;28;20511;-77
2023/08/11 01:34:36;;;;;;;10.53;7.70;;;17.50;72.60;;;;;;5030024;28;20140;-77
2023/08/11 01:37:04;;;;;;;11.50;8.48;;;17.40;72.60;;;;;;5013565;28;20285;-76
2023/08/11 01:39:33;;;;;;;11.65;8.30;;;17.40;72.60;;;;;;5029709;28;20050;-77
2023/08/11 01:42:01;;;;;;;13.35;9.10;;;17.40;72.70;;;;;;5029279;28;20570;-77
2023/08/11 01:44:29;;;;;;;12.57;9.10;;;17.40;72.70;;;;;;5011205;28;20993;-77
2023/08/11 01:46:57;;;;;;;10.73;9.03;;;17.30;72.90;;;;;;5028776;28;20136;-77
2023/08/11 01:49:26;;;;;;;13.90;9.13;;;17.30;73.00;;;;;;5013003;28;20276;-77
2023/08/11 01:51:54;;;;;;;12.85;10.00;;;17.20;73.00;;;;;;5018386;28;20495;-77
2023/08/11 01:54:21;;;;;;;12.50;9.50;;;17.20;73.00;;;;;;4992707;28;20053;-77
2023/08/11 01:56:49;;;;;;;12.82;9.57;;;17.20;73.10;;;;;;5029495;28;20053;-77
2023/08/11 01:59:18;;;;;;;12.53;9.40;;;17.20;73.10;;;;;;5029301;28;20050;-77
2023/08/11 02:01:46;;;;;;;12.57;9.77;;;17.20;73.20;;;;;;5004721;28;20731;-77
2023/08/11 02:04:13;;;;;;;13.15;10.48;;;17.10;73.20;;;;;;5026939;28;20516;-77
2023/08/11 02:06:41;;;;;;;15.18;10.13;;;17.10;73.30;;;;;;5024889;28;20054;-77
2023/08/11 02:09:09;;;;;;;12.65;9.57;;;17.00;73.30;;;;;;5013064;28;20140;-77
2023/08/11 02:11:37;;;;;;;13.67;10.40;;;17.00;73.30;;;;;;5029931;28;20059;-77
2023/08/11 02:14:04;;;;;;;15.63;11.15;;;17.00;73.50;;;;;;5029045;28;20254;-77
2023/08/11 02:16:33;;;;;;;13.45;9.82;;;17.00;73.50;;;;;;5012228;28;20756;-77
2023/08/11 02:19:00;;;;;;;13.38;10.05;;;17.00;73.60;;;;;;5012414;28;20133;-77
2023/08/11 02:21:29;;;;;;;15.80;10.77;;;17.00;73.70;;;;;;5012330;28;20565;-77
2023/08/11 02:23:57;;;;;;;13.60;10.30;;;17.00;73.70;;;;;;5028580;28;20053;-77
2023/08/11 02:26:27;;;;;;;14.82;10.93;;;16.90;73.80;;;;;;5011040;28;20280;-77
2023/08/11 02:28:54;;;;;;;13.50;10.30;;;16.90;73.90;;;;;;5024345;28;20053;-77
2023/08/11 02:31:21;;;;;;;12.82;9.82;;;16.90;73.80;;;;;;5030021;28;20525;-77
2023/08/11 02:33:50;;;;;;;14.55;11.10;;;16.90;73.80;;;;;;5028917;28;20100;-77
2023/08/11 02:36:19;;;;;;;13.60;10.87;;;16.90;74.00;;;;;;5030782;28;20838;-77
2023/08/11 02:38:46;;;;;;;14.38;10.57;;;16.80;74.00;;;;;;5030685;28;20256;-77
2023/08/11 02:41:13;;;;;;;13.98;10.70;;;16.80;74.10;;;;;;5029636;28;20642;-77
2023/08/11 02:43:40;;;;;;;16.55;11.20;;;16.80;74.00;;;;;;5024186;28;20152;-77
2023/08/11 02:46:07;;;;;;;13.50;10.88;;;16.80;74.10;;;;;;5028196;28;20563;-77
2023/08/11 02:48:34;;;;;;;12.87;10.00;;;16.80;74.20;;;;;;5009579;28;20052;-77
2023/08/11 02:51:03;;;;;;;13.25;9.98;;;16.80;74.40;;;;;;5006518;28;20257;-77
2023/08/11 02:53:31;;;;;;;13.77;10.02;;;16.70;74.30;;;;;;5001539;28;20046;-77
2023/08/11 02:56:00;;;;;;;12.85;9.80;;;16.70;74.30;;;;;;5011867;28;20114;-77
2023/08/11 02:58:28;;;;;;;12.75;10.02;;;16.70;74.50;;;;;;5012100;28;21037;-77
2023/08/11 03:00:57;;;;;;;12.70;10.00;;;16.70;74.50;;;;;;5028514;28;20537;-77
2023/08/11 03:03:25;;;;;;;13.60;9.73;;;16.60;74.40;;;;;;5011437;28;20349;-77
2023/08/11 03:05:52;;;;;;;18.58;10.63;;;16.60;74.60;;;;;;5010830;28;20073;-77
2023/08/11 03:08:38;;;;;;;14.65;10.80;;;16.60;74.60;;;;;;5012289;28;20132;-77
2023/08/11 03:11:05;;;;;;;14.23;10.10;;;16.60;74.60;;;;;;5011660;28;20518;-77
2023/08/11 03:13:37;;;;;;;12.70;9.47;;;16.50;74.70;;;;;;5003178;28;20393;-77
2023/08/11 03:16:05;;;;;;;12.63;8.77;;;16.60;74.70;;;;;;5011985;28;20347;-77
2023/08/11 03:18:32;;;;;;;10.90;8.45;;;16.50;74.60;;;;;;5012203;28;20084;-77
2023/08/11 03:21:02;;;;;;;12.77;9.55;;;16.50;74.60;;;;;;5028419;28;20053;-77
2023/08/11 03:23:29;;;;;;;13.90;8.75;;;16.50;74.70;;;;;;5028188;28;20105;-77
2023/08/11 03:25:59;;;;;;;12.13;9.20;;;16.50;74.80;;;;;;5011756;28;20050;-77
2023/08/11 03:28:28;;;;;;;13.55;9.10;;;16.50;74.90;;;;;;5011014;28;20253;-77
2023/08/11 03:31:00;;;;;;;12.65;8.32;;;16.40;74.90;;;;;;5011041;28;20046;-77
2023/08/11 03:33:28;;;;;;;13.43;9.27;;;16.40;74.90;;;;;;5027911;28;20042;-76
2023/08/11 03:36:05;;;;;;;11.98;8.38;;;16.40;74.90;;;;;;5011684;28;20778;-77
2023/08/11 03:38:32;;;;;;;12.07;8.43;;;16.40;75.20;;;;;;5007696;28;20051;-77
2023/08/11 03:41:01;;;;;;;11.43;8.18;;;16.40;75.10;;;;;;5011467;28;20319;-77
2023/08/11 03:43:28;;;;;;;11.77;8.30;;;16.40;75.50;;;;;;5028830;28;20140;-77
2023/08/11 03:45:57;;;;;;;14.57;8.75;;;16.30;75.50;;;;;;5011390;28;20046;-78
2023/08/11 03:48:24;;;;;;;12.25;8.15;;;16.30;75.50;;;;;;5028376;28;20068;-77
2023/08/11 03:50:52;;;;;;;12.10;8.40;;;16.30;75.50;;;;;;5023600;28;20053;-77
2023/08/11 03:53:21;;;;;;;10.65;7.88;;;16.30;75.80;;;;;;5005566;28;20261;-77
2023/08/11 03:55:51;;;;;;;12.40;8.77;;;16.20;76.10;;;;;;5016196;28;20050;-77
2023/08/11 03:58:23;;;;;;;11.57;8.23;;;16.20;76.40;;;;;;5006288;28;20054;-77
2023/08/11 04:00:53;;;;;;;13.13;8.00;;;16.20;76.60;;;;;;5027119;28;20094;-77
2023/08/11 04:03:22;;;;;;;10.80;7.63;;;16.20;76.90;;;;;;5010742;28;20177;-77
2023/08/11 04:05:49;;;;;;;11.18;7.90;;;16.20;76.90;;;;;;5009363;28;20277;-77
2023/08/11 04:08:18;;;;;;;10.63;7.63;;;16.20;77.20;;;;;;5001474;28;20053;-77
2023/08/11 04:10:45;;;;;;;12.25;7.50;;;16.10;77.10;;;;;;5023728;28;20126;-77
2023/08/11 04:13:12;;;;;;;11.45;7.68;;;16.10;76.90;;;;;;5010153;28;20567;-77
2023/08/11 04:15:40;;;;;;;12.10;7.73;;;16.10;76.90;;;;;;5026671;28;20492;-77
2023/08/11 04:18:08;;;;;;;10.57;7.68;;;16.10;77.10;;;;;;5027098;28;20285;-77
2023/08/11 04:20:36;;;;;;;13.65;7.68;;;16.10;77.30;;;;;;5026444;28;20046;-77
2023/08/11 04:23:04;;;;;;;12.13;7.95;;;16.10;77.40;;;;;;5023106;28;20078;-77
2023/08/11 04:25:33;;;;;;;12.23;8.50;;;16.10;77.40;;;;;;5024803;28;20050;-77
2023/08/11 04:28:02;;;;;;;12.03;8.20;;;16.10;77.50;;;;;;5010046;28;20046;-77
2023/08/11 04:30:29;;;;;;;12.02;7.95;;;16.10;77.70;;;;;;5027274;28;20261;-77
2023/08/11 04:32:57;;;;;;;12.23;8.27;;;16.10;77.90;;;;;;5031566;23;20145;-77
2023/08/11 04:35:25;;;;;;;12.50;8.27;;;16.10;77.80;;;;;;5011911;28;20049;-77
2023/08/11 04:37:52;;;;;;;13.38;8.52;;;16.10;77.60;;;;;;5003593;28;20083;-77
2023/08/11 04:40:21;;;;;;;12.17;8.30;;;16.10;77.70;;;;;;4997734;28;20501;-77
2023/08/11 04:42:53;;;;;;;11.30;8.07;;;16.10;77.70;;;;;;4994383;28;20632;-77
2023/08/11 04:45:28;;;;;;;11.70;8.35;;;16.10;77.70;;;;;;5010739;28;20050;-77
2023/08/11 04:47:58;;;;;;;11.25;7.47;;;16.10;77.60;;;;;;5012709;28;20057;-77
2023/08/11 04:50:25;;;;;;;13.18;7.88;;;16.10;77.60;;;;;;5027267;28;20141;-77
2023/08/11 04:52:56;;;;;;;11.13;7.53;;;16.10;77.70;;;;;;5010811;28;20054;-77
2023/08/11 04:55:24;;;;;;;12.13;8.20;;;16.10;77.60;;;;;;5003821;28;20280;-77
2023/08/11 04:57:51;;;;;;;10.18;7.70;;;16.10;77.60;;;;;;4994345;28;20090;-77
2023/08/11 05:00:20;;;;;;;11.65;8.00;;;16.10;77.50;;;;;;5026606;28;20050;-77
2023/08/11 05:02:47;;;;;;;11.40;8.05;;;16.10;77.70;;;;;;5030503;28;20053;-77
2023/08/11 05:05:15;;;;;;;12.70;6.97;;;16.10;77.80;;;;;;5030106;28;20054;-77
2023/08/11 05:07:43;;;;;;;10.52;7.60;;;16.10;77.60;;;;;;5017716;28;20671;-77
2023/08/11 05:10:10;;;;;;;12.52;6.63;;;16.10;77.80;;;;;;5016589;28;20132;-77
2023/08/11 05:12:37;;;;;;;12.65;8.00;;;16.10;77.80;;;;;;5021683;28;20866;-77
2023/08/11 05:15:06;;;;;;;10.63;7.35;;;16.10;77.70;;;;;;5005392;28;20081;-76
2023/08/11 05:17:33;;;;;;;11.43;7.87;;;16.10;77.90;;;;;;5024707;28;20086;-77
2023/08/11 05:20:00;;;;;;;11.70;7.18;;;16.10;78.20;;;;;;5018987;28;20315;-77
2023/08/11 05:22:29;;;;;;;9.48;6.90;;;16.10;78.10;;;;;;5019210;28;20129;-78
2023/08/11 05:24:58;;;;;;;11.48;7.40;;;16.10;78.40;;;;;;5016844;28;20054;-78
2023/08/11 05:27:26;;;;;;;12.23;7.57;;;16.10;78.60;;;;;;5019703;28;20512;-78
2023/08/11 05:29:53;;;;;;;12.83;7.17;;;16.10;78.80;;;;;;5016474;28;20225;-78
2023/08/11 05:32:20;;;;;;;12.32;7.35;;;16.20;78.90;;;;;;5023094;28;20265;-78
2023/08/11 05:34:48;;;;;;;10.90;6.53;;;16.10;78.90;;;;;;5024179;28;20054;-78
2023/08/11 05:37:17;;;;;;;10.60;7.30;;;16.20;79.00;;;;;;5029184;28;20054;-77
2023/08/11 05:39:46;;;;;;;12.57;6.75;;;16.20;79.20;;;;;;5010390;28;20077;-78
2023/08/11 05:42:13;;;;;;;11.77;7.70;;;16.20;79.30;;;;;;5021171;28;20072;-78
2023/08/11 05:44:40;;;;;;;10.50;6.97;;;16.20;79.40;;;;;;5015413;28;20281;-78
2023/08/11 05:47:08;;;;;;;9.30;6.72;;;16.20;79.50;;;;;;5023322;28;20081;-78
2023/08/11 05:49:35;;;;;;;11.95;6.93;;;16.30;79.60;;;;;;5018271;28;20153;-78
2023/08/11 05:52:02;;;;;;;10.70;7.20;;;16.30;79.70;;;;;;5027948;28;20397;-79
2023/08/11 05:54:29;;;;;;;9.17;6.60;;;16.30;79.70;;;;;;5017508;28;20061;-79
2023/08/11 05:56:58;;;;;;;11.27;7.28;;;16.40;79.70;;;;;;5020036;28;20362;-78
2023/08/11 05:59:25;;;;;;;11.80;7.05;;;16.40;79.80;;;;;;5015503;28;20105;-78
2023/08/11 06:01:52;;;;;;;10.68;6.60;;;16.40;79.80;;;;;;5016604;28;20080;-77
2023/08/11 06:04:19;;;;;;;11.38;7.30;;;16.40;79.70;;;;;;5022088;28;20056;-78
2023/08/11 06:06:46;;;;;;;9.03;6.20;;;16.40;79.80;;;;;;5021351;28;20145;-77
2023/08/11 06:09:13;;;;;;;11.23;6.72;;;16.50;79.80;;;;;;5027687;28;20359;-79
2023/08/11 06:11:40;;;;;;;9.25;6.15;;;16.50;80.00;;;;;;5026773;28;20499;-76
2023/08/11 06:14:09;;;;;;;10.23;6.30;;;16.60;80.00;;;;;;5015629;28;20050;-77
2023/08/11 06:16:36;;;;;;;11.38;6.88;;;16.60;79.90;;;;;;4993277;28;20145;-77
2023/08/11 06:19:03;;;;;;;9.87;6.60;;;16.70;80.10;;;;;;5010224;28;20928;-77
2023/08/11 06:21:30;;;;;;;10.18;6.68;;;16.70;80.00;;;;;;5025115;28;20801;-76
2023/08/11 06:23:57;;;;;;;11.90;5.97;;;16.70;80.10;;;;;;5017001;28;20061;-78
2023/08/11 06:26:25;;;;;;;10.32;5.97;;;16.80;80.10;;;;;;5024776;28;20056;-78
2023/08/11 06:28:52;;;;;;;9.45;6.50;;;16.80;80.10;;;;;;5025781;28;20057;-79
2023/08/11 06:31:21;;;;;;;10.37;6.27;;;16.90;80.20;;;;;;5027262;28;20050;-77
2023/08/11 06:33:48;;;;;;;7.95;5.57;;;16.90;80.10;;;;;;5027282;28;20285;-77
2023/08/11 06:36:15;;;;;;;9.52;6.43;;;17.00;80.00;;;;;;5023456;28;20133;-77
2023/08/11 06:38:43;;;;;;;9.95;5.88;;;17.00;80.00;;;;;;5003972;28;20061;-78
2023/08/11 06:41:10;;;;;;;8.55;6.10;;;17.00;79.90;;;;;;5019997;28;20535;-78
2023/08/11 06:43:38;;;;;;;9.03;5.70;;;17.10;80.00;;;;;;5025864;28;20062;-78
2023/08/11 06:46:05;;;;;;;9.65;6.00;;;17.20;80.00;;;;;;5029671;28;20301;-78
2023/08/11 06:48:33;;;;;;;8.13;5.88;;;17.20;80.10;;;;;;5029014;28;20081;-77
2023/08/11 06:51:01;;;;;;;10.52;6.13;;;17.20;80.10;;;;;;5028516;28;20046;-77
2023/08/11 06:53:28;;;;;;;9.93;5.93;;;17.20;80.10;;;;;;5027718;28;20045;-77
2023/08/11 06:55:55;;;;;;;9.53;5.90;;;17.40;80.00;;;;;;5011996;28;20512;-77
2023/08/11 06:58:22;;;;;;;9.45;5.80;;;17.40;80.00;;;;;;5027855;28;20282;-77
2023/08/11 07:00:49;;;;;;;8.00;5.30;;;17.50;80.00;;;;;;5029167;28;20125;-78
2023/08/11 07:03:16;;;;;;;8.98;5.50;;;17.50;80.00;;;;;;5027609;28;20097;-78
2023/08/11 07:05:44;;;;;;;8.60;5.45;;;17.50;79.90;;;;;;4991754;28;20082;-78
2023/08/11 07:08:11;;;;;;;9.83;6.20;;;17.60;79.90;;;;;;5019277;28;20095;-78
2023/08/11 07:10:40;;;;;;;9.43;5.53;;;17.70;79.80;;;;;;5028944;28;20258;-77
2023/08/11 07:13:08;;;;;;;9.43;5.82;;;17.80;79.70;;;;;;5022539;28;20050;-78
2023/08/11 07:15:42;;;;;;;8.50;5.55;;;17.80;79.50;;;;;;5007739;28;20593;-77
2023/08/11 07:18:09;;;;;;;9.30;5.32;;;18.00;79.00;;;;;;5006064;28;20048;-77
2023/08/11 07:20:41;;;;;;;9.53;5.80;;;18.00;78.90;;;;;;5015860;28;20595;-78
2023/08/11 07:23:10;;;;;;;10.40;5.43;;;18.10;78.70;;;;;;5002557;28;20270;-78
2023/08/11 07:25:37;;;;;;;9.15;6.10;;;18.10;78.70;;;;;;5022331;28;20060;-78
2023/08/11 07:28:05;;;;;;;12.20;5.75;;;18.20;78.60;;;;;;5006524;28;20054;-78
2023/08/11 07:30:32;;;;;;;10.68;5.97;;;18.30;78.40;;;;;;5017856;28;20113;-78
2023/08/11 07:33:00;;;;;;;9.53;6.20;;;18.40;78.30;;;;;;5028468;28;20050;-77
2023/08/11 07:35:27;;;;;;;9.35;5.93;;;18.40;78.20;;;;;;5027189;28;20254;-78
2023/08/11 07:37:54;;;;;;;10.43;6.10;;;18.50;78.00;;;;;;5027148;28;20188;-77
2023/08/11 07:40:23;;;;;;;10.32;5.80;;;18.60;77.80;;;;;;5027444;28;20046;-77
2023/08/11 07:42:50;;;;;;;8.77;5.47;;;18.70;77.80;;;;;;5027535;28;20065;-78
2023/08/11 07:45:19;;;;;;;8.53;5.27;;;18.70;77.80;;;;;;5027302;28;20570;-79
2023/08/11 07:47:46;;;;;;;8.55;5.40;;;18.80;77.70;;;;;;5015566;28;20680;-78
2023/08/11 07:50:14;;;;;;;8.82;5.22;;;18.90;77.70;;;;;;5002763;28;20221;-78
2023/08/11 07:52:41;;;;;;;8.35;5.22;;;18.90;77.50;;;;;;5022970;28;20172;-79
2023/08/11 07:55:08;;;;;;;7.22;5.10;;;19.00;76.70;;;;;;5022462;28;20049;-79
2023/08/11 07:57:37;;;;;;;9.17;4.90;;;19.10;76.00;;;;;;5016838;28;20476;-78
2023/08/11 08:00:05;;;;;;;7.55;4.97;;;19.20;75.60;;;;;;5007321;28;20269;-77
2023/08/11 08:02:40;;;;;;;8.90;5.00;;;19.30;75.20;;;;;;5008565;28;20054;-77
2023/08/11 08:05:08;;;;;;;8.40;4.50;;;19.40;75.20;;;;;;5007097;28;20050;-78
2023/08/11 08:07:35;;;;;;;8.25;4.95;;;19.50;74.80;;;;;;5008688;28;20062;-78
2023/08/11 08:10:08;;;;;;;8.90;4.70;;;19.50;74.50;;;;;;5023131;28;20056;-78
2023/08/11 08:12:38;;;;;;;8.55;4.97;;;19.60;74.50;;;;;;5007001;28;20353;-78
2023/08/11 08:15:07;;;;;;;7.88;4.55;;;19.70;74.10;;;;;;5009375;28;20133;-78
2023/08/11 08:17:34;;;;;;;8.13;4.50;;;19.70;73.80;;;;;;5006276;28;21088;-78
2023/08/11 08:20:01;;;;;;;7.13;4.38;;;19.80;73.20;;;;;;5006298;28;20089;-78
2023/08/11 08:22:28;;;;;;;6.70;4.07;;;19.90;73.40;;;;;;5007422;28;20083;-78
2023/08/11 08:24:56;;;;;;;5.75;3.67;;;20.00;73.40;;;;;;5006544;28;20593;-78
2023/08/11 08:27:24;;;;;;;8.27;4.15;;;20.00;73.60;;;;;;5009000;28;20671;-78
2023/08/11 08:29:53;;;;;;;7.85;4.78;;;20.00;73.20;;;;;;5007908;28;20895;-78
2023/08/11 08:32:20;;;;;;;7.20;4.13;;;20.10;72.80;;;;;;5008746;28;20050;-78
2023/08/11 08:34:49;;;;;;;8.37;4.07;;;20.30;72.30;;;;;;5008482;28;20055;-78
2023/08/11 08:37:18;;;;;;;6.22;4.10;;;20.30;72.00;;;;;;5023794;28;20336;-78
2023/08/11 08:39:45;;;;;;;8.38;4.45;;;20.40;71.20;;;;;;5008851;28;20077;-78
2023/08/11 08:42:14;;;;;;;8.20;3.72;;;20.50;71.60;;;;;;5006834;28;20050;-78
2023/08/11 08:44:42;;;;;;;6.68;4.10;;;20.50;71.80;;;;;;5006969;28;20050;-78
2023/08/11 08:47:13;;;;;;;8.03;4.30;;;20.60;71.60;;;;;;5007512;28;20138;-78
2023/08/11 08:49:43;;;;;;;10.00;3.92;;;20.70;70.80;;;;;;5007481;28;20338;-78
2023/08/11 08:52:10;;;;;;;7.60;4.30;;;20.70;70.10;;;;;;5006800;28;20504;-78
2023/08/11 08:54:38;;;;;;;7.20;3.95;;;20.80;70.00;;;;;;5008288;28;20061;-78
2023/08/11 08:57:09;;;;;;;7.47;4.15;;;20.90;70.00;;;;;;5023607;28;20125;-78
2023/08/11 08:59:37;;;;;;;7.93;4.00;;;20.90;70.30;;;;;;5008635;28;20825;-78
2023/08/11 09:02:13;;;;;;;6.57;3.85;;;21.00;70.40;;;;;;5006899;28;20376;-78
2023/08/11 09:04:41;;;;;;;6.88;4.10;;;21.00;70.30;;;;;;5006809;28;20512;-78
2023/08/11 09:07:08;;;;;;;10.63;4.55;;;21.10;70.00;;;;;;5008466;28;20516;-78
2023/08/11 09:09:37;;;;;;;8.43;3.75;;;21.10;69.40;;;;;;5006821;28;20046;-78
2023/08/11 09:12:05;;;;;;;6.27;4.10;;;21.30;69.30;;;;;;5008231;28;20047;-78
2023/08/11 09:14:33;;;;;;;6.25;3.58;;;21.30;69.10;;;;;;5025585;28;21269;-79
2023/08/11 09:17:01;;;;;;;7.25;3.45;;;21.40;69.60;;;;;;5007783;28;20516;-78
2023/08/11 09:19:29;;;;;;;7.53;3.60;;;21.40;70.10;;;;;;5006310;28;20058;-78
2023/08/11 09:21:57;;;;;;;8.90;4.50;;;21.50;69.50;;;;;;5010641;28;20133;-78
2023/08/11 09:24:25;;;;;;;6.03;3.50;;;21.50;69.40;;;;;;5024105;28;20204;-78
2023/08/11 09:26:54;;;;;;;9.05;4.47;;;21.60;68.50;;;;;;5013143;28;20342;-78
2023/08/11 09:29:21;;;;;;;8.60;3.60;;;21.70;67.90;;;;;;5029719;28;20056;-78
2023/08/11 09:31:49;;;;;;;9.05;3.83;;;21.70;68.00;;;;;;5029436;28;20081;-78
2023/08/11 09:34:18;;;;;;;7.35;3.78;;;21.80;68.40;;;;;;5029295;28;20058;-78
2023/08/11 09:36:49;;;;;;;6.50;4.00;;;21.90;68.60;;;;;;5029651;28;20061;-78
2023/08/11 09:39:17;;;;;;;7.30;4.20;;;22.00;68.70;;;;;;5030770;28;20301;-80
2023/08/11 09:41:45;;;;;;;7.78;4.00;;;22.00;68.60;;;;;;5030778;28;21012;-78
2023/08/11 09:44:16;;;;;;;7.38;4.35;;;22.10;68.10;;;;;;5031306;28;21004;-79
2023/08/11 09:46:44;;;;;;;7.13;4.00;;;22.20;67.10;;;;;;5031163;28;20167;-78
2023/08/11 09:49:11;;;;;;;7.33;4.53;;;22.20;67.10;;;;;;5012932;28;20049;-78
2023/08/11 09:51:44;;;;;;;6.03;3.75;;;22.30;66.90;;;;;;5029170;28;20301;-78
2023/08/11 09:54:13;;;;;;;7.43;4.05;;;22.40;67.30;;;;;;5029388;28;20104;-79
2023/08/11 09:56:42;;;;;;;6.85;3.47;;;22.50;66.90;;;;;;5029299;28;20132;-78
2023/08/11 09:59:12;;;;;;;9.93;3.97;;;22.50;66.80;;;;;;5029578;28;20081;-79
2023/08/11 10:01:42;;;;;;;7.90;4.03;;;22.60;66.70;;;;;;5030945;28;21111;-78
2023/08/11 10:04:11;;;;;;;7.75;4.10;;;22.60;66.30;;;;;;5030923;28;20281;-79
2023/08/11 10:06:43;;;;;;;8.82;3.63;;;22.70;66.20;;;;;;5030728;28;20117;-78
2023/08/11 10:09:14;;;;;;;6.85;3.80;;;22.80;65.70;;;;;;5030794;28;20046;-78
2023/08/11 10:11:44;;;;;;;8.93;3.10;;;22.90;65.10;;;;;;5029776;28;20109;-78
2023/08/11 10:14:17;;;;;;;5.53;3.00;;;22.90;64.40;;;;;;5029375;28;20070;-78
2023/08/11 10:16:46;;;;;;;9.13;3.20;;;23.00;64.30;;;;;;5030707;28;20385;-79
2023/08/11 10:19:13;;;;;;;6.40;3.30;;;23.10;65.00;;;;;;5029157;28;20108;-79
2023/08/11 10:21:41;;;;;;;6.97;3.30;;;23.10;64.60;;;;;;5030447;28;20057;-78
2023/08/11 10:24:09;;;;;;;6.30;3.08;;;23.20;64.10;;;;;;5018215;28;20077;-78
2023/08/11 10:26:39;;;;;;;8.80;3.83;;;23.20;64.70;;;;;;5009248;28;20452;-78
2023/08/11 10:29:06;;;;;;;5.32;2.70;;;23.30;65.10;;;;;;5008575;28;20811;-78
2023/08/11 10:31:34;;;;;;;5.85;3.00;;;23.40;65.00;;;;;;5008679;28;20046;-79
2023/08/11 10:34:07;;;;;;;6.20;3.00;;;23.50;63.90;;;;;;5008273;28;20593;-79
2023/08/11 10:36:34;;;;;;;5.80;3.20;;;23.50;64.30;;;;;;5010385;28;20532;-78
2023/08/11 10:39:03;;;;;;;8.37;3.30;;;23.60;64.90;;;;;;5008701;28;20049;-78
2023/08/11 10:41:31;;;;;;;5.55;2.80;;;23.60;63.90;;;;;;5008699;28;20380;-79
2023/08/11 10:43:59;;;;;;;5.93;2.60;;;23.80;63.40;;;;;;5010021;28;20090;-78
2023/08/11 10:46:30;;;;;;;6.60;3.00;;;23.80;63.30;;;;;;4992231;28;20081;-79
2023/08/11 10:48:59;;;;;;;7.30;2.97;;;23.90;63.30;;;;;;5010001;28;20085;-79
2023/08/11 10:51:32;;;;;;;5.00;2.87;;;23.90;63.40;;;;;;5009721;28;20101;-78
2023/08/11 10:54:09;;;;;;;5.82;3.08;;;24.00;63.40;;;;;;5008917;28;20999;-78
2023/08/11 10:56:38;;;;;;;5.97;2.70;;;24.00;63.20;;;;;;5008616;28;20054;-79
2023/08/11 10:59:08;;;;;;;6.88;3.03;;;24.20;63.30;;;;;;5008826;28;20562;-79
2023/08/11 11:01:37;;;;;;;5.68;3.17;;;24.20;63.30;;;;;;5008565;28;20054;-78
2023/08/11 11:04:06;;;;;;;5.47;2.90;;;24.30;62.50;;;;;;5008740;28;20058;-79
2023/08/11 11:06:33;;;;;;;5.07;2.83;;;24.40;62.40;;;;;;5010163;28;20254;-78
2023/08/11 11:09:01;;;;;;;6.78;2.97;;;24.40;62.10;;;;;;5009622;28;20059;-79
2023/08/11 11:11:28;;;;;;;5.00;2.42;;;24.50;62.20;;;;;;5008592;28;20057;-78
2023/08/11 11:13:55;;;;;;;5.05;2.50;;;24.60;62.30;;;;;;5008692;28;20057;-79
2023/08/11 11:16:24;;;;;;;4.93;2.60;;;24.60;62.20;;;;;;5008575;28;20128;-79
2023/08/11 11:18:51;;;;;;;4.47;2.20;;;24.70;61.90;;;;;;5008051;28;20301;-78
2023/08/11 11:21:19;;;;;;;5.80;2.60;;;24.80;61.40;;;;;;5008144;28;20050;-79
2023/08/11 11:23:49;;;;;;;5.38;2.78;;;25.00;61.30;;;;;;5017587;28;20133;-79
2023/08/11 11:26:22;;;;;;;5.50;2.70;;;25.00;60.40;;;;;;5029151;28;20053;-79
2023/08/11 11:28:49;;;;;;;8.07;3.30;;;25.00;59.80;;;;;;5011410;28;20046;-79
2023/08/11 11:31:17;;;;;;;6.10;3.17;;;25.00;59.00;;;;;;5027447;28;20361;-79
2023/08/11 11:33:45;;;;;;;5.65;3.10;;;25.00;59.30;;;;;;5011336;28;20398;-79
2023/08/11 11:36:13;;;;;;;6.38;2.65;;;25.00;58.30;;;;;;5028692;28;20054;-79
2023/08/11 11:38:41;;;;;;;5.47;2.50;;;25.00;58.50;;;;;;5027210;28;20054;-79
2023/08/11 11:41:11;;;;;;;5.50;2.80;;;25.10;58.50;;;;;;5027064;28;20057;-79
2023/08/11 11:43:39;;;;;;;6.18;2.80;;;25.20;58.60;;;;;;5026780;28;20238;-78
2023/08/11 11:46:14;;;;;;;6.85;3.00;;;25.20;58.00;;;;;;5027042;28;20527;-79
2023/08/11 11:48:44;;;;;;;5.43;2.72;;;25.30;58.50;;;;;;5028878;28;20469;-79
2023/08/11 11:51:13;;;;;;;6.43;3.28;;;25.30;57.90;;;;;;5026697;28;20054;-79
2023/08/11 11:53:42;;;;;;;7.93;3.07;;;25.40;58.70;;;;;;5027647;28;20587;-79
2023/08/11 11:56:13;;;;;;;5.22;2.60;;;25.40;59.40;;;;;;5027100;28;20261;-79
2023/08/11 11:58:40;;;;;;;6.47;2.60;;;25.50;59.20;;;;;;5027282;28;20042;-79
2023/08/11 12:01:14;;;;;;;5.15;2.63;;;25.60;58.90;;;;;;5026888;28;20053;-79
2023/08/11 12:03:42;;;;;;;6.63;2.60;;;25.60;58.30;;;;;;5011014;28;20132;-79
2023/08/11 12:06:10;;;;;;;7.10;3.10;;;25.80;57.10;;;;;;5027488;28;20049;-79
2023/08/11 12:08:41;;;;;;;8.20;3.03;;;25.80;56.50;;;;;;5010955;28;20332;-79
2023/08/11 12:11:11;;;;;;;5.70;2.72;;;25.90;56.50;;;;;;5031205;28;20678;-79
2023/08/11 12:13:39;;;;;;;5.53;2.83;;;25.90;57.10;;;;;;5011603;28;20484;-78
2023/08/11 12:16:07;;;;;;;5.10;2.58;;;26.00;57.20;;;;;;5027639;28;20053;-79
2023/08/11 12:18:35;;;;;;;6.60;2.57;;;26.00;56.70;;;;;;5028853;28;20050;-79
2023/08/11 12:21:03;;;;;;;6.57;2.90;;;26.00;57.20;;;;;;5010604;28;20762;-79
2023/08/11 12:23:31;;;;;;;5.10;2.58;;;26.10;55.90;;;;;;5027671;28;20046;-78
2023/08/11 12:26:00;;;;;;;4.93;2.70;;;26.20;56.60;;;;;;5027126;28;20607;-79
2023/08/11 12:28:28;;;;;;;6.85;2.85;;;26.20;57.50;;;;;;5027402;28;20056;-79
2023/08/11 12:30:55;;;;;;;9.02;3.28;;;26.30;57.60;;;;;;5010869;28;20496;-79
2023/08/11 12:33:22;;;;;;;5.35;2.47;;;26.40;57.30;;;;;;5026742;28;20080;-78
2023/08/11 12:35:50;;;;;;;8.68;2.85;;;26.40;56.70;;;;;;5027739;28;20116;-79
2023/08/11 12:38:19;;;;;;;7.25;2.63;;;26.50;55.60;;;;;;5027527;28;20054;-79
2023/08/11 12:40:47;;;;;;;6.57;2.80;;;26.60;56.40;;;;;;5027191;28;20046;-79
2023/08/11 12:43:16;;;;;;;6.47;2.70;;;26.60;56.10;;;;;;5028177;28;20137;-80
2023/08/11 12:45:45;;;;;;;5.78;2.85;;;26.60;56.80;;;;;;5028661;28;20057;-79
2023/08/11 12:48:13;;;;;;;4.93;2.88;;;26.70;56.60;;;;;;5027255;28;20050;-79